createdAt,value
2018-12-30T00:00:21.544Z,67.49
2018-12-30T00:01:21.570Z,67.26
2018-12-30T00:02:21.595Z,67.68
2018-12-30T00:03:21.617Z,67.86
2018-12-30T00:04:21.645Z,67.77
2018-12-30T00:05:21.668Z,68.12
2018-12-30T00:06:21.696Z,67.86
2018-12-30T00:07:21.717Z,68.02
2018-12-30T00:08:21.742Z,68.15
2018-12-30T00:09:21.765Z,68.24
2018-12-30T00:10:21.793Z,68.68
2018-12-30T00:11:21.815Z,68.33
2018-12-30T00:12:21.839Z,68.15
2018-12-30T00:13:21.864Z,68.24
2018-12-30T00:14:21.892Z,68.21
2018-12-30T00:15:21.912Z,68.52
2018-12-30T00:16:21.940Z,68.52
2018-12-30T00:17:21.961Z,68.24
2018-12-30T00:18:21.986Z,68.81
2018-12-30T00:19:22.015Z,68.62
2018-12-30T00:20:22.042Z,68.62
2018-12-30T00:21:22.062Z,68.52
2018-12-30T00:22:22.088Z,68.96
2018-12-30T00:23:22.109Z,68.77
2018-12-30T00:24:22.138Z,68.68
2018-12-30T00:25:22.159Z,69.00
2018-12-30T00:26:22.184Z,68.81
2018-12-30T00:27:22.209Z,69.00
2018-12-30T00:28:22.233Z,68.90
2018-12-30T00:29:22.257Z,69.19
2018-12-30T00:30:22.282Z,69.28
2018-12-30T00:31:22.304Z,69.00
2018-12-30T00:32:22.332Z,69.28
2018-12-30T00:33:22.358Z,69.28
2018-12-30T00:34:22.384Z,68.87
2018-12-30T00:35:22.406Z,69.44
2018-12-30T00:36:22.430Z,69.25
2018-12-30T00:37:22.452Z,69.38
2018-12-30T00:38:22.478Z,69.57
2018-12-30T00:39:22.505Z,69.34
2018-12-30T00:40:22.542Z,69.06
2018-12-30T00:41:22.555Z,69.19
2018-12-30T00:42:22.578Z,69.47
2018-12-30T00:43:22.604Z,69.63
2018-12-30T00:44:22.627Z,69.47
2018-12-30T00:45:22.651Z,69.25
2018-12-30T00:46:22.679Z,69.57
2018-12-30T00:47:22.700Z,69.19
2018-12-30T00:48:22.724Z,69.57
2018-12-30T00:49:22.762Z,69.63
2018-12-30T00:50:22.776Z,69.44
2018-12-30T00:51:22.801Z,69.28
2018-12-30T00:52:22.823Z,69.76
2018-12-30T00:53:22.850Z,69.85
2018-12-30T00:54:22.874Z,70.14
2018-12-30T00:55:22.900Z,70.29
2018-12-30T00:56:22.922Z,70.42
2018-12-30T00:57:22.948Z,70.23
2018-12-30T00:58:22.972Z,70.42
2018-12-30T00:59:22.997Z,70.10
2018-12-30T01:00:23.020Z,70.04
2018-12-30T01:01:23.045Z,70.14
2018-12-30T01:02:23.073Z,69.85
2018-12-30T01:03:23.093Z,70.39
2018-12-30T01:04:23.119Z,70.48
2018-12-30T01:05:23.148Z,70.67
2018-12-30T01:06:23.171Z,70.57
2018-12-30T01:07:23.194Z,70.98
2018-12-30T01:08:23.215Z,70.57
2018-12-30T01:09:23.241Z,70.95
2018-12-30T01:10:23.266Z,70.61
2018-12-30T01:11:23.293Z,70.67
2018-12-30T01:12:23.313Z,70.86
2018-12-30T01:13:23.341Z,71.17
2018-12-30T01:14:23.363Z,70.76
2018-12-30T01:15:23.388Z,71.27
2018-12-30T01:16:23.415Z,71.04
2018-12-30T01:17:23.437Z,71.36
2018-12-30T01:18:23.462Z,71.17
2018-12-30T01:19:23.488Z,71.33
2018-12-30T01:20:23.510Z,71.46
2018-12-30T01:21:25.102Z,71.23
2018-12-30T01:22:23.559Z,71.23
2018-12-30T01:23:23.583Z,71.33
2018-12-30T01:24:23.608Z,71.42
2018-12-30T01:25:23.633Z,71.27
2018-12-30T01:26:23.657Z,70.98
2018-12-30T01:27:23.682Z,71.17
2018-12-30T01:28:23.706Z,71.71
2018-12-30T01:29:23.731Z,71.61
2018-12-30T01:30:23.756Z,71.80
2018-12-30T01:31:23.781Z,71.65
2018-12-30T01:32:23.804Z,71.84
2018-12-30T01:33:23.830Z,71.55
2018-12-30T01:34:23.854Z,71.74
2018-12-30T01:35:23.878Z,71.93
2018-12-30T01:36:23.902Z,72.12
2018-12-30T01:37:23.930Z,72.22
2018-12-30T01:38:23.952Z,71.93
2018-12-30T01:39:23.973Z,72.03
2018-12-30T01:40:23.999Z,71.84
2018-12-30T01:41:24.026Z,71.90
2018-12-30T01:42:24.050Z,71.74
2018-12-30T01:43:24.075Z,72.41
2018-12-30T01:44:24.097Z,72.28
2018-12-30T01:45:24.123Z,72.47
2018-12-30T01:46:24.147Z,72.12
2018-12-30T01:47:24.171Z,72.09
2018-12-30T01:48:24.199Z,72.09
2018-12-30T01:49:24.223Z,72.41
2018-12-30T01:50:24.249Z,72.41
2018-12-30T01:51:24.268Z,72.31
2018-12-30T01:52:24.293Z,72.22
2018-12-30T01:53:24.318Z,72.47
2018-12-30T01:54:24.345Z,72.50
2018-12-30T01:55:24.369Z,72.31
2018-12-30T01:56:24.395Z,73.07
2018-12-30T01:57:24.416Z,72.75
2018-12-30T01:58:24.441Z,72.94
2018-12-30T01:59:24.465Z,72.75
2018-12-30T02:00:24.492Z,72.78
2018-12-30T02:01:24.514Z,72.75
2018-12-30T02:02:24.541Z,72.75
2018-12-30T02:03:24.567Z,72.94
2018-12-30T02:04:24.590Z,72.75
2018-12-30T02:05:24.616Z,72.85
2018-12-30T02:06:24.640Z,73.03
2018-12-30T02:07:24.662Z,72.94
2018-12-30T02:08:24.690Z,72.94
2018-12-30T02:09:24.714Z,73.03
2018-12-30T02:10:24.738Z,72.75
2018-12-30T02:11:24.766Z,72.75
2018-12-30T02:12:24.835Z,72.75
2018-12-30T02:13:24.810Z,73.41
2018-12-30T02:14:24.836Z,73.03
2018-12-30T02:15:24.861Z,72.85
2018-12-30T02:16:24.887Z,72.94
2018-12-30T02:17:24.908Z,72.94
2018-12-30T02:18:24.940Z,72.94
2018-12-30T02:19:24.958Z,73.03
2018-12-30T02:20:24.982Z,73.13
2018-12-30T02:21:25.012Z,72.75
2018-12-30T02:22:25.040Z,72.85
2018-12-30T02:23:25.058Z,73.50
2018-12-30T02:24:25.083Z,73.50
2018-12-30T02:25:25.107Z,73.41
2018-12-30T02:26:25.131Z,73.32
2018-12-30T02:27:25.156Z,73.22
2018-12-30T02:28:25.181Z,73.13
2018-12-30T02:29:25.208Z,73.13
2018-12-30T02:30:25.229Z,73.32
2018-12-30T02:31:25.258Z,73.22
2018-12-30T02:32:25.278Z,73.32
2018-12-30T02:33:25.305Z,73.60
2018-12-30T02:34:25.334Z,73.69
2018-12-30T02:35:25.349Z,73.41
2018-12-30T02:36:25.377Z,73.54
2018-12-30T02:37:25.401Z,73.64
2018-12-30T02:38:25.426Z,73.83
2018-12-30T02:39:25.450Z,73.60
2018-12-30T02:40:25.475Z,73.45
2018-12-30T02:41:25.500Z,73.35
2018-12-30T02:42:25.526Z,73.41
2018-12-30T02:43:25.550Z,73.35
2018-12-30T02:44:25.573Z,73.35
2018-12-30T02:45:25.600Z,73.35
2018-12-30T02:46:25.624Z,73.83
2018-12-30T02:47:25.644Z,74.11
2018-12-30T02:48:25.671Z,73.83
2018-12-30T02:49:25.696Z,73.83
2018-12-30T02:50:25.720Z,73.64
2018-12-30T02:51:25.758Z,73.64
2018-12-30T02:52:25.769Z,74.02
2018-12-30T02:53:25.794Z,73.92
2018-12-30T02:54:25.821Z,73.83
2018-12-30T02:55:25.843Z,73.73
2018-12-30T02:56:25.922Z,74.11
2018-12-30T02:57:25.892Z,74.11
2018-12-30T02:58:25.928Z,73.92
2018-12-30T02:59:25.941Z,74.11
2018-12-30T03:00:25.965Z,74.11
2018-12-30T03:01:25.999Z,73.92
2018-12-30T03:02:26.019Z,74.30
2018-12-30T03:03:26.042Z,74.40
2018-12-30T03:04:26.063Z,74.40
2018-12-30T03:05:26.090Z,74.30
2018-12-30T03:06:26.118Z,74.30
2018-12-30T03:07:26.138Z,74.49
2018-12-30T03:08:26.164Z,74.58
2018-12-30T03:09:26.189Z,74.21
2018-12-30T03:10:26.211Z,74.26
2018-12-30T03:11:26.239Z,74.45
2018-12-30T03:12:26.260Z,74.40
2018-12-30T03:13:26.287Z,74.40
2018-12-30T03:14:26.311Z,74.49
2018-12-30T03:15:26.338Z,74.49
2018-12-30T03:16:26.360Z,74.30
2018-12-30T03:17:26.387Z,74.40
2018-12-30T03:18:26.412Z,74.30
2018-12-30T03:19:26.435Z,74.40
2018-12-30T03:20:26.462Z,74.68
2018-12-30T03:21:26.485Z,74.58
2018-12-30T03:22:26.515Z,74.30
2018-12-30T03:23:26.538Z,74.58
2018-12-30T03:24:26.574Z,74.49
2018-12-30T03:25:26.582Z,74.68
2018-12-30T03:26:26.614Z,74.74
2018-12-30T03:27:26.635Z,74.77
2018-12-30T03:28:26.656Z,74.77
2018-12-30T03:29:26.681Z,74.68
2018-12-30T03:30:26.708Z,75.05
2018-12-30T03:31:26.734Z,74.96
2018-12-30T03:32:26.764Z,74.96
2018-12-30T03:33:26.786Z,75.24
2018-12-30T03:34:26.806Z,75.34
2018-12-30T03:35:26.832Z,75.34
2018-12-30T03:36:26.857Z,74.83
2018-12-30T03:37:26.882Z,75.02
2018-12-30T03:38:26.907Z,75.24
2018-12-30T03:39:26.931Z,75.24
2018-12-30T03:40:26.958Z,75.05
2018-12-30T03:41:26.980Z,75.12
2018-12-30T03:42:27.006Z,75.05
2018-12-30T03:43:27.027Z,74.96
2018-12-30T03:44:27.053Z,75.02
2018-12-30T03:45:27.077Z,75.15
2018-12-30T03:46:27.102Z,75.05
2018-12-30T03:47:27.128Z,74.96
2018-12-30T03:48:27.150Z,75.21
2018-12-30T03:49:27.181Z,75.21
2018-12-30T03:50:27.202Z,75.05
2018-12-30T03:51:27.229Z,74.96
2018-12-30T03:52:27.253Z,75.15
2018-12-30T03:53:27.285Z,75.24
2018-12-30T03:54:27.300Z,75.24
2018-12-30T03:55:27.328Z,75.24
2018-12-30T03:56:27.349Z,75.72
2018-12-30T03:57:27.375Z,75.34
2018-12-30T03:58:27.403Z,75.34
2018-12-30T03:59:27.425Z,75.34
2018-12-30T04:00:27.450Z,75.15
2018-12-30T04:01:27.475Z,75.62
2018-12-30T04:02:27.585Z,75.34
2018-12-30T04:03:27.522Z,75.72
2018-12-30T04:04:27.549Z,75.81
2018-12-30T04:05:27.577Z,75.43
2018-12-30T04:06:27.600Z,75.62
2018-12-30T04:07:27.624Z,75.62
2018-12-30T04:08:27.651Z,75.62
2018-12-30T04:09:27.675Z,75.81
2018-12-30T04:10:27.698Z,75.72
2018-12-30T04:11:27.721Z,75.53
2018-12-30T04:12:27.748Z,75.62
2018-12-30T04:13:27.772Z,75.53
2018-12-30T04:14:27.797Z,75.72
2018-12-30T04:15:27.825Z,75.53
2018-12-30T04:16:27.849Z,75.53
2018-12-30T04:17:27.870Z,75.24
2018-12-30T04:18:27.900Z,75.34
2018-12-30T04:19:27.921Z,75.34
2018-12-30T04:20:27.945Z,75.34
2018-12-30T04:21:27.972Z,75.53
2018-12-30T04:22:28.001Z,75.81
2018-12-30T04:23:28.020Z,76.29
2018-12-30T04:24:28.044Z,75.81
2018-12-30T04:25:28.075Z,75.81
2018-12-30T04:26:28.094Z,75.72
2018-12-30T04:27:28.117Z,75.72
2018-12-30T04:28:28.143Z,76.10
2018-12-30T04:29:28.168Z,76.10
2018-12-30T04:30:28.194Z,76.19
2018-12-30T04:31:28.217Z,75.91
2018-12-30T04:32:28.244Z,75.91
2018-12-30T04:33:28.270Z,76.10
2018-12-30T04:34:28.291Z,76.10
2018-12-30T04:35:28.320Z,76.19
2018-12-30T04:36:28.340Z,76.19
2018-12-30T04:37:28.365Z,75.91
2018-12-30T04:38:28.393Z,76.00
2018-12-30T04:39:28.416Z,76.19
2018-12-30T04:40:28.441Z,76.29
2018-12-30T04:41:28.469Z,75.72
2018-12-30T04:42:28.494Z,76.38
2018-12-30T04:43:28.521Z,76.48
2018-12-30T04:44:28.538Z,76.38
2018-12-30T04:45:28.563Z,76.38
2018-12-30T04:46:28.587Z,76.19
2018-12-30T04:47:28.612Z,76.29
2018-12-30T04:48:28.636Z,76.29
2018-12-30T04:49:28.664Z,76.38
2018-12-30T04:50:28.687Z,76.48
2018-12-30T04:51:28.722Z,76.19
2018-12-30T04:52:28.736Z,76.76
2018-12-30T04:53:28.759Z,76.76
2018-12-30T04:54:28.784Z,76.48
2018-12-30T04:55:28.811Z,76.67
2018-12-30T04:56:28.834Z,76.48
2018-12-30T04:57:28.860Z,76.29
2018-12-30T04:58:28.883Z,76.86
2018-12-30T04:59:28.907Z,76.76
2018-12-30T05:00:28.933Z,76.67
2018-12-30T05:01:28.959Z,76.67
2018-12-30T05:02:28.984Z,76.57
2018-12-30T05:03:29.009Z,76.67
2018-12-30T05:04:29.033Z,76.67
2018-12-30T05:05:29.060Z,76.67
2018-12-30T05:06:29.081Z,76.86
2018-12-30T05:07:29.105Z,76.76
2018-12-30T05:08:29.132Z,76.76
2018-12-30T05:09:29.158Z,76.67
2018-12-30T05:10:29.178Z,76.67
2018-12-30T05:11:29.203Z,76.67
2018-12-30T05:12:29.232Z,76.86
2018-12-30T05:13:29.255Z,76.76
2018-12-30T05:14:29.281Z,76.76
2018-12-30T05:15:29.301Z,76.67
2018-12-30T05:16:29.326Z,76.67
2018-12-30T05:17:29.350Z,76.57
2018-12-30T05:18:29.376Z,76.57
2018-12-30T05:19:29.403Z,76.76
2018-12-30T05:20:29.430Z,76.48
2018-12-30T05:21:29.452Z,76.29
2018-12-30T05:22:33.848Z,76.38
2018-12-30T05:23:29.500Z,76.29
2018-12-30T05:24:29.522Z,76.29
2018-12-30T05:25:29.550Z,76.00
2018-12-30T05:26:29.573Z,76.10
2018-12-30T05:27:29.595Z,75.81
2018-12-30T05:28:29.620Z,75.81
2018-12-30T05:29:29.645Z,75.81
2018-12-30T05:30:29.671Z,75.62
2018-12-30T05:31:29.695Z,75.43
2018-12-30T05:32:29.721Z,75.72
2018-12-30T05:33:29.744Z,75.43
2018-12-30T05:34:29.777Z,75.72
2018-12-30T05:35:29.794Z,75.91
2018-12-30T05:36:29.818Z,75.72
2018-12-30T05:37:29.842Z,75.91
2018-12-30T05:38:29.867Z,75.43
2018-12-30T05:39:29.893Z,75.24
2018-12-30T05:40:29.919Z,75.24
2018-12-30T05:41:29.944Z,75.12
2018-12-30T05:42:29.970Z,75.12
2018-12-30T05:43:29.997Z,75.05
2018-12-30T05:44:30.013Z,75.15
2018-12-30T05:45:30.045Z,75.05
2018-12-30T05:46:30.062Z,75.05
2018-12-30T05:47:30.093Z,75.24
2018-12-30T05:48:30.112Z,74.96
2018-12-30T05:49:30.137Z,74.96
2018-12-30T05:50:30.161Z,74.58
2018-12-30T05:51:30.188Z,74.40
2018-12-30T05:52:30.210Z,74.49
2018-12-30T05:53:30.238Z,74.40
2018-12-30T05:54:30.262Z,74.30
2018-12-30T05:55:30.287Z,73.92
2018-12-30T05:56:31.974Z,73.92
2018-12-30T05:57:30.334Z,73.45
2018-12-30T05:58:30.358Z,73.16
2018-12-30T05:59:30.382Z,72.88
2018-12-30T06:00:30.409Z,72.78
2018-12-30T06:01:30.432Z,72.78
2018-12-30T06:02:30.456Z,72.31
2018-12-30T06:03:30.479Z,71.65
2018-12-30T06:04:30.506Z,72.03
2018-12-30T06:05:30.529Z,71.46
2018-12-30T06:06:30.553Z,71.08
2018-12-30T06:07:30.576Z,71.27
2018-12-30T06:08:30.604Z,70.51
2018-12-30T06:09:30.627Z,70.51
2018-12-30T06:10:30.650Z,70.32
2018-12-30T06:11:30.674Z,69.95
2018-12-30T06:12:30.699Z,69.38
2018-12-30T06:13:30.724Z,69.66
2018-12-30T06:14:30.750Z,69.38
2018-12-30T06:15:30.772Z,69.28
2018-12-30T06:16:30.797Z,68.81
2018-12-30T06:17:30.823Z,68.71
2018-12-30T06:18:30.846Z,68.62
2018-12-30T06:19:30.872Z,68.62
2018-12-30T06:20:30.894Z,68.33
2018-12-30T06:21:30.919Z,68.05
2018-12-30T06:22:30.943Z,68.15
2018-12-30T06:23:30.969Z,67.58
2018-12-30T06:24:30.994Z,67.58
2018-12-30T06:25:31.021Z,67.49
2018-12-30T06:26:31.041Z,66.82
2018-12-30T06:27:31.064Z,67.01
2018-12-30T06:28:31.088Z,66.41
2018-12-30T06:29:31.120Z,66.60
2018-12-30T06:30:31.144Z,66.22
2018-12-30T06:31:31.167Z,65.75
2018-12-30T06:32:31.186Z,65.50
2018-12-30T06:33:31.211Z,65.84
2018-12-30T06:34:31.242Z,65.47
2018-12-30T06:35:31.259Z,65.21
2018-12-30T06:36:31.283Z,65.28
2018-12-30T06:37:31.329Z,65.09
2018-12-30T06:38:31.335Z,64.80
2018-12-30T06:39:31.366Z,64.99
2018-12-30T06:40:31.380Z,65.09
2018-12-30T06:41:31.404Z,65.28
2018-12-30T06:42:31.430Z,65.28
2018-12-30T06:43:31.464Z,65.28
2018-12-30T06:44:31.481Z,65.18
2018-12-30T06:45:31.501Z,64.99
2018-12-30T06:46:31.528Z,65.09
2018-12-30T06:47:31.548Z,65.18
2018-12-30T06:48:31.576Z,65.28
2018-12-30T06:49:31.599Z,65.18
2018-12-30T06:50:31.624Z,64.99
2018-12-30T06:51:31.646Z,64.80
2018-12-30T06:52:31.675Z,64.80
2018-12-30T06:53:31.698Z,65.18
2018-12-30T06:54:31.724Z,65.09
2018-12-30T06:55:31.744Z,65.47
2018-12-30T06:56:31.769Z,65.66
2018-12-30T06:57:31.793Z,65.84
2018-12-30T06:58:31.820Z,65.84
2018-12-30T06:59:31.840Z,65.47
2018-12-30T07:00:31.865Z,65.75
2018-12-30T07:01:31.894Z,65.56
2018-12-30T07:02:31.914Z,65.56
2018-12-30T07:03:31.941Z,65.56
2018-12-30T07:04:31.965Z,65.66
2018-12-30T07:05:31.988Z,65.66
2018-12-30T07:06:32.012Z,65.47
2018-12-30T07:07:32.037Z,65.84
2018-12-30T07:08:32.060Z,66.03
2018-12-30T07:09:32.086Z,66.22
2018-12-30T07:10:32.110Z,66.22
2018-12-30T07:11:32.136Z,66.22
2018-12-30T07:12:32.158Z,66.22
2018-12-30T07:13:32.185Z,66.41
2018-12-30T07:14:32.207Z,66.13
2018-12-30T07:15:32.231Z,66.13
2018-12-30T07:16:32.253Z,66.22
2018-12-30T07:17:32.279Z,65.94
2018-12-30T07:18:32.305Z,66.13
2018-12-30T07:19:32.330Z,66.50
2018-12-30T07:20:32.353Z,66.41
2018-12-30T07:21:32.378Z,66.50
2018-12-30T07:22:32.399Z,66.69
2018-12-30T07:23:32.428Z,67.07
2018-12-30T07:24:32.446Z,66.98
2018-12-30T07:25:32.472Z,66.60
2018-12-30T07:26:32.500Z,66.69
2018-12-30T07:27:32.522Z,67.07
2018-12-30T07:28:32.545Z,66.69
2018-12-30T07:29:32.568Z,67.07
2018-12-30T07:30:32.595Z,66.73
2018-12-30T07:31:32.618Z,66.88
2018-12-30T07:32:32.643Z,66.69
2018-12-30T07:33:32.665Z,66.98
2018-12-30T07:34:32.695Z,66.41
2018-12-30T07:35:32.712Z,65.94
2018-12-30T07:36:32.739Z,65.78
2018-12-30T07:37:32.763Z,65.59
2018-12-30T07:38:32.790Z,64.83
2018-12-30T07:39:32.812Z,65.02
2018-12-30T07:40:32.835Z,64.93
2018-12-30T07:41:32.860Z,63.70
2018-12-30T07:42:32.885Z,63.23
2018-12-30T07:43:32.909Z,62.56
2018-12-30T07:44:32.936Z,61.90
2018-12-30T07:45:32.956Z,60.86
2018-12-30T07:46:32.980Z,59.91
2018-12-30T07:47:33.007Z,59.34
2018-12-30T07:48:33.032Z,58.21
2018-12-30T07:49:33.056Z,57.45
2018-12-30T07:50:33.076Z,56.60
2018-12-30T07:51:33.101Z,56.51
2018-12-30T07:52:33.126Z,56.13
2018-12-30T07:53:33.151Z,56.03
2018-12-30T07:54:33.175Z,55.94
2018-12-30T07:55:33.200Z,55.56
2018-12-30T07:56:33.222Z,55.27
2018-12-30T07:57:33.249Z,55.27
2018-12-30T07:58:33.272Z,55.18
2018-12-30T07:59:33.297Z,55.37
2018-12-30T08:00:33.326Z,55.18
2018-12-30T08:01:33.346Z,54.71
2018-12-30T08:02:33.371Z,54.90
2018-12-30T08:03:33.395Z,54.99
2018-12-30T08:04:33.420Z,55.46
2018-12-30T08:05:33.443Z,56.88
2018-12-30T08:06:33.468Z,57.45
2018-12-30T08:07:33.492Z,56.88
2018-12-30T08:08:33.518Z,56.32
2018-12-30T08:09:33.544Z,56.88
2018-12-30T08:10:33.566Z,56.88
2018-12-30T08:11:33.589Z,57.26
2018-12-30T08:12:33.616Z,59.34
2018-12-30T08:13:33.670Z,60.00
2018-12-30T08:14:33.666Z,60.48
2018-12-30T08:15:33.691Z,60.77
2018-12-30T08:16:33.715Z,60.10
2018-12-30T08:17:33.740Z,60.77
2018-12-30T08:18:33.766Z,61.15
2018-12-30T08:19:33.793Z,61.15
2018-12-30T08:20:33.816Z,62.66
2018-12-30T08:21:33.840Z,62.88
2018-12-30T08:22:33.863Z,62.78
2018-12-30T08:23:33.887Z,63.45
2018-12-30T08:24:33.913Z,64.68
2018-12-30T08:25:33.939Z,64.68
2018-12-30T08:26:33.966Z,65.72
2018-12-30T08:27:33.988Z,66.67
2018-12-30T08:28:34.016Z,64.96
2018-12-30T08:29:34.037Z,65.91
2018-12-30T08:30:34.062Z,67.24
2018-12-30T08:31:34.089Z,67.52
2018-12-30T08:32:34.116Z,70.26
2018-12-30T08:33:34.137Z,69.60
2018-12-30T08:34:34.162Z,70.07
2018-12-30T08:35:34.905Z,71.21
2018-12-30T08:36:34.213Z,73.96
2018-12-30T08:37:34.238Z,73.01
2018-12-30T08:38:34.262Z,73.49
2018-12-30T08:39:34.289Z,71.31
2018-12-30T08:40:34.315Z,71.02
2018-12-30T08:41:34.338Z,71.31
2018-12-30T08:42:34.362Z,76.04
2018-12-30T08:43:34.388Z,78.03
2018-12-30T08:44:34.412Z,74.15
2018-12-30T08:45:34.442Z,75.47
2018-12-30T08:46:34.466Z,75.47
2018-12-30T08:47:34.488Z,73.58
2018-12-30T08:48:34.511Z,72.25
2018-12-30T08:49:34.558Z,75.00
2018-12-30T08:50:34.563Z,75.00
2018-12-30T08:51:34.587Z,75.38
2018-12-30T08:52:34.614Z,80.30
2018-12-30T08:53:34.636Z,77.27
2018-12-30T08:54:34.662Z,78.59
2018-12-30T08:55:34.690Z,78.31
2018-12-30T08:56:34.713Z,77.46
2018-12-30T08:57:34.739Z,78.79
2018-12-30T08:58:34.764Z,79.17
2018-12-30T08:59:34.790Z,79.17
2018-12-30T09:00:34.814Z,77.08
2018-12-30T09:01:34.841Z,77.94
2018-12-30T09:02:34.866Z,78.50
2018-12-30T09:03:34.890Z,77.37
2018-12-30T09:04:34.913Z,78.50
2018-12-30T09:05:34.940Z,77.84
2018-12-30T09:06:34.963Z,78.69
2018-12-30T09:07:34.986Z,82.10
2018-12-30T09:08:35.012Z,79.45
2018-12-30T09:09:35.037Z,82.29
2018-12-30T09:10:35.067Z,82.10
2018-12-30T09:11:35.089Z,81.44
2018-12-30T09:12:35.115Z,83.90
2018-12-30T09:13:35.140Z,81.15
2018-12-30T09:14:35.164Z,78.98
2018-12-30T09:15:35.190Z,80.21
2018-12-30T09:16:35.228Z,81.06
2018-12-30T09:17:35.239Z,84.56
2018-12-30T09:18:35.266Z,85.04
2018-12-30T09:19:35.290Z,83.52
2018-12-30T09:20:35.315Z,82.29
2018-12-30T09:21:35.344Z,85.04
2018-12-30T09:22:35.366Z,84.70
2018-12-30T09:23:37.536Z,84.94
2018-12-30T09:24:35.421Z,94.04
2018-12-30T09:25:35.444Z,88.64
2018-12-30T09:26:35.469Z,89.30
2018-12-30T09:27:35.515Z,89.68
2018-12-30T09:28:35.520Z,91.38
2018-12-30T09:29:35.545Z,87.92
2018-12-30T09:30:35.574Z,91.71
2018-12-30T09:31:35.596Z,89.87
2018-12-30T09:32:35.623Z,88.87
2018-12-30T09:33:35.647Z,88.64
2018-12-30T09:34:35.672Z,90.15
2018-12-30T09:35:35.700Z,89.96
2018-12-30T09:36:35.724Z,92.71
2018-12-30T09:37:35.750Z,90.53
2018-12-30T09:38:35.778Z,92.52
2018-12-30T09:39:35.802Z,89.68
2018-12-30T09:40:35.829Z,88.54
2018-12-30T09:41:35.855Z,94.98
2018-12-30T09:42:35.956Z,91.57
2018-12-30T09:43:35.903Z,91.67
2018-12-30T09:44:35.931Z,89.39
2018-12-30T09:45:35.958Z,90.72
2018-12-30T09:46:35.983Z,91.76
2018-12-30T09:47:36.008Z,88.07
2018-12-30T09:48:36.033Z,87.21
2018-12-30T09:49:36.092Z,87.69
2018-12-30T09:50:36.083Z,87.88
2018-12-30T09:51:36.111Z,91.29
2018-12-30T09:52:36.132Z,88.73
2018-12-30T09:53:36.162Z,90.63
2018-12-30T09:54:36.186Z,89.68
2018-12-30T09:55:36.210Z,89.58
2018-12-30T09:56:36.235Z,95.26
2018-12-30T09:57:36.273Z,94.60
2018-12-30T09:58:36.288Z,95.83
2018-12-30T09:59:36.316Z,91.57
2018-12-30T10:00:36.338Z,92.52
2018-12-30T10:01:36.364Z,93.84
2018-12-30T10:02:36.390Z,90.25
2018-12-30T10:03:36.415Z,89.68
2018-12-30T10:04:36.449Z,87.98
2018-12-30T10:05:36.467Z,91.48
2018-12-30T10:06:36.492Z,95.45
2018-12-30T10:07:36.518Z,91.38
2018-12-30T10:08:36.546Z,94.23
2018-12-30T10:09:36.569Z,91.67
2018-12-30T10:10:36.598Z,91.00
2018-12-30T10:11:37.787Z,89.01
2018-12-30T10:12:36.706Z,88.82
2018-12-30T10:13:36.670Z,88.54
2018-12-30T10:14:36.715Z,87.78
2018-12-30T10:15:36.722Z,87.98
2018-12-30T10:16:36.753Z,89.11
2018-12-30T10:17:36.786Z,90.15
2018-12-30T10:18:36.804Z,87.98
2018-12-30T10:19:36.826Z,87.40
2018-12-30T10:20:36.857Z,87.59
2018-12-30T10:21:36.876Z,89.30
2018-12-30T10:22:36.905Z,86.55
2018-12-30T10:23:36.930Z,87.88
2018-12-30T10:24:36.957Z,87.50
2018-12-30T10:25:36.981Z,83.90
2018-12-30T10:26:37.006Z,82.95
2018-12-30T10:27:37.030Z,84.56
2018-12-30T10:28:37.058Z,82.76
2018-12-30T10:29:37.112Z,82.67
2018-12-30T10:30:37.106Z,82.67
2018-12-30T10:31:37.130Z,81.63
2018-12-30T10:32:37.156Z,82.76
2018-12-30T10:33:37.183Z,85.89
2018-12-30T10:34:37.228Z,84.56
2018-12-30T10:35:37.233Z,82.10
2018-12-30T10:36:37.262Z,84.94
2018-12-30T10:37:37.307Z,85.23
2018-12-30T10:38:37.314Z,81.53
2018-12-30T10:39:37.339Z,83.81
2018-12-30T10:40:37.364Z,83.14
2018-12-30T10:41:37.387Z,82.76
2018-12-30T10:42:37.411Z,84.56
2018-12-30T10:43:37.438Z,82.57
2018-12-30T10:44:37.465Z,81.53
2018-12-30T10:45:37.491Z,82.20
2018-12-30T10:46:37.512Z,83.33
2018-12-30T10:47:37.539Z,82.10
2018-12-30T10:48:37.566Z,83.14
2018-12-30T10:49:37.593Z,82.29
2018-12-30T10:50:37.614Z,85.51
2018-12-30T10:51:37.641Z,85.23
2018-12-30T10:52:37.665Z,83.24
2018-12-30T10:53:37.692Z,84.94
2018-12-30T10:54:37.715Z,84.00
2018-12-30T10:55:37.753Z,87.12
2018-12-30T10:56:37.770Z,84.94
2018-12-30T10:57:37.791Z,85.99
2018-12-30T10:58:37.818Z,87.31
2018-12-30T10:59:37.843Z,85.61
2018-12-30T11:00:37.869Z,83.62
2018-12-30T11:01:37.892Z,86.18
2018-12-30T11:02:37.925Z,85.70
2018-12-30T11:03:37.950Z,85.04
2018-12-30T11:04:37.979Z,86.74
2018-12-30T11:05:37.998Z,84.56
2018-12-30T11:06:38.020Z,84.00
2018-12-30T11:07:38.045Z,84.66
2018-12-30T11:08:38.074Z,84.00
2018-12-30T11:09:38.096Z,82.95
2018-12-30T11:10:38.121Z,84.56
2018-12-30T11:11:38.146Z,85.32
2018-12-30T11:12:38.171Z,84.38
2018-12-30T11:13:38.200Z,84.38
2018-12-30T11:14:38.224Z,84.28
2018-12-30T11:15:38.249Z,83.05
2018-12-30T11:16:38.277Z,84.00
2018-12-30T11:17:38.301Z,82.86
2018-12-30T11:18:38.324Z,81.63
2018-12-30T11:19:38.350Z,81.53
2018-12-30T11:20:38.378Z,82.10
2018-12-30T11:21:38.403Z,82.20
2018-12-30T11:22:38.426Z,83.05
2018-12-30T11:23:38.452Z,83.71
2018-12-30T11:24:38.477Z,84.75
2018-12-30T11:25:38.502Z,82.01
2018-12-30T11:26:38.528Z,83.05
2018-12-30T11:27:38.552Z,83.05
2018-12-30T11:28:38.579Z,80.77
2018-12-30T11:29:38.603Z,81.25
2018-12-30T11:30:38.630Z,80.87
2018-12-30T11:31:38.657Z,78.88
2018-12-30T11:32:38.684Z,78.03
2018-12-30T11:33:38.713Z,76.23
2018-12-30T11:34:38.730Z,77.37
2018-12-30T11:35:38.758Z,76.61
2018-12-30T11:36:38.786Z,77.08
2018-12-30T11:37:38.810Z,76.14
2018-12-30T11:38:38.831Z,76.32
2018-12-30T11:39:38.869Z,74.81
2018-12-30T11:40:38.886Z,73.96
2018-12-30T11:41:38.911Z,74.33
2018-12-30T11:42:38.942Z,74.15
2018-12-30T11:43:38.957Z,73.96
2018-12-30T11:44:38.986Z,77.84
2018-12-30T11:45:39.007Z,76.51
2018-12-30T11:46:39.034Z,75.66
2018-12-30T11:47:39.061Z,77.75
2018-12-30T11:48:39.086Z,78.03
2018-12-30T11:49:39.109Z,77.46
2018-12-30T11:50:39.133Z,76.61
2018-12-30T11:51:39.163Z,77.94
2018-12-30T11:52:39.184Z,76.23
2018-12-30T11:53:39.209Z,75.95
2018-12-30T11:54:39.239Z,76.51
2018-12-30T11:55:39.275Z,77.75
2018-12-30T11:56:39.284Z,76.14
2018-12-30T11:57:39.311Z,75.66
2018-12-30T11:58:39.336Z,77.56
2018-12-30T11:59:39.363Z,77.46
2018-12-30T12:00:39.388Z,78.03
2018-12-30T12:01:39.413Z,76.80
2018-12-30T12:02:39.440Z,77.56
2018-12-30T12:03:39.461Z,75.85
2018-12-30T12:04:39.487Z,77.75
2018-12-30T12:05:39.511Z,78.50
2018-12-30T12:06:39.537Z,78.31
2018-12-30T12:07:39.563Z,77.46
2018-12-30T12:08:39.588Z,78.13
2018-12-30T12:09:39.612Z,75.76
2018-12-30T12:10:39.638Z,76.89
2018-12-30T12:11:39.663Z,76.80
2018-12-30T12:12:39.692Z,76.61
2018-12-30T12:13:39.713Z,77.27
2018-12-30T12:14:39.737Z,77.08
2018-12-30T12:15:39.763Z,77.46
2018-12-30T12:16:39.831Z,80.21
2018-12-30T12:17:39.813Z,77.46
2018-12-30T12:18:39.838Z,76.32
2018-12-30T12:19:39.865Z,75.38
2018-12-30T12:20:39.892Z,77.27
2018-12-30T12:21:39.914Z,78.50
2018-12-30T12:22:39.938Z,78.98
2018-12-30T12:23:39.963Z,78.69
2018-12-30T12:24:39.993Z,77.94
2018-12-30T12:25:40.021Z,78.79
2018-12-30T12:26:40.038Z,79.93
2018-12-30T12:27:40.061Z,78.50
2018-12-30T12:28:40.086Z,78.88
2018-12-30T12:29:40.112Z,78.88
2018-12-30T12:30:40.144Z,77.37
2018-12-30T12:31:40.161Z,76.80
2018-12-30T12:32:40.188Z,76.51
2018-12-30T12:33:40.217Z,77.37
2018-12-30T12:34:40.245Z,76.19
2018-12-30T12:35:40.266Z,75.24
2018-12-30T12:36:40.290Z,74.96
2018-12-30T12:37:40.314Z,74.58
2018-12-30T12:38:40.338Z,74.21
2018-12-30T12:39:40.364Z,73.92
2018-12-30T12:40:40.389Z,73.64
2018-12-30T12:41:40.418Z,73.64
2018-12-30T12:42:40.460Z,72.31
2018-12-30T12:43:40.464Z,72.03
2018-12-30T12:44:40.518Z,71.65
2018-12-30T12:45:40.514Z,71.36
2018-12-30T12:46:40.544Z,71.17
2018-12-30T12:47:40.560Z,70.61
2018-12-30T12:48:40.588Z,71.17
2018-12-30T12:49:40.611Z,71.27
2018-12-30T12:50:40.637Z,71.27
2018-12-30T12:51:40.675Z,71.08
2018-12-30T12:52:40.687Z,71.27